LGKZ/KZI METAR and TAF weather

Enter ICAO airport designator
Station Type Date Time Source
LGKZ METAR 2020/12/06 00:50 UTC NOAA

LGKZ 060050Z AUTO VRB01KT //// // ////// 07/06 Q1018 RE//


Station Type Date Time Source
LGKZ Decoded METAR 2020/12/06 00:50 UTC NOAA

Kozani Airport , Greece (LGKZ) 40-18N 021-47E 627M
Dec 05, 2020 - 07:50 PM EST / 2020.12.06 0050 UTC
Wind: Variable at 1 MPH (1 KT):0
Temperature: 44 F (7 C)
Dew Point: 42 F (6 C)
Relative Humidity: 93%
Pressure (altimeter): 30.06 in. Hg (1018 hPa)
ob: LGKZ 060050Z AUTO VRB01KT //// // ////// 07/06 Q1018 RE//
cycle: 1

Station Type Date Time Source
LGKZ TAF UTC NOAA

Error!

Example: see airport list